createdAt,value
2019-04-29T00:02:38.760Z,13.9
2019-04-29T00:07:36.237Z,13.8
2019-04-29T00:12:33.620Z,13.8
2019-04-29T00:17:31.333Z,13.7
2019-04-29T00:22:28.931Z,13.7
2019-04-29T00:27:26.642Z,13.7
2019-04-29T00:32:24.416Z,13.6
2019-04-29T00:37:22.019Z,13.7
2019-04-29T00:42:19.505Z,13.6
2019-04-29T00:47:16.559Z,13.5
2019-04-29T00:52:14.296Z,13.5
2019-04-29T00:57:11.761Z,11.5
2019-04-29T01:02:09.371Z,13.4
2019-04-29T01:07:06.560Z,13.4
2019-04-29T01:12:04.000Z,13.4
2019-04-29T01:17:01.752Z,13.4
2019-04-29T01:21:59.473Z,13.4
2019-04-29T01:26:57.486Z,13.4
2019-04-29T01:31:54.940Z,13.4
2019-04-29T01:36:52.458Z,13.5
2019-04-29T01:41:50.216Z,13.6
2019-04-29T01:46:47.950Z,13.6
2019-04-29T01:51:45.585Z,13.6
2019-04-29T01:56:43.095Z,13.4
2019-04-29T02:01:40.652Z,13.4
2019-04-29T02:06:37.751Z,13.3
2019-04-29T02:11:35.258Z,13.1
2019-04-29T02:16:32.542Z,13.1
2019-04-29T02:21:30.010Z,13
2019-04-29T02:26:27.509Z,13
2019-04-29T02:31:25.547Z,12.9
2019-04-29T02:36:22.661Z,12.7
2019-04-29T02:41:20.449Z,12.9
2019-04-29T02:46:17.726Z,12.8
2019-04-29T02:51:15.219Z,12.8
2019-04-29T02:56:12.839Z,12.9
2019-04-29T03:01:10.388Z,12.9
2019-04-29T03:06:07.920Z,12.9
2019-04-29T03:11:05.298Z,12.8
2019-04-29T03:16:02.861Z,12.8
2019-04-29T03:21:00.462Z,12.7
2019-04-29T03:25:57.920Z,12.8
2019-04-29T03:30:55.314Z,12.7
2019-04-29T03:35:52.987Z,12.6
2019-04-29T03:40:50.140Z,12.6
2019-04-29T03:45:47.426Z,12.6
2019-04-29T03:50:44.718Z,12.6
2019-04-29T03:55:42.058Z,12.6
2019-04-29T04:00:43.693Z,12.6
2019-04-29T04:05:37.158Z,12.5
2019-04-29T04:10:34.542Z,12.5
2019-04-29T04:15:31.941Z,12.5
2019-04-29T04:20:29.877Z,12.4
2019-04-29T04:25:27.501Z,12.6
2019-04-29T04:30:25.073Z,12.5
2019-04-29T04:35:22.536Z,12.6
2019-04-29T04:40:20.011Z,12.4
2019-04-29T04:45:17.483Z,11.9
2019-04-29T04:50:15.128Z,12.1
2019-04-29T04:55:12.520Z,12.6
2019-04-29T05:00:10.210Z,12.6
2019-04-29T05:05:07.713Z,12.4
2019-04-29T05:10:05.866Z,12.7
2019-04-29T05:15:03.224Z,12.6
2019-04-29T05:20:00.774Z,12.8
2019-04-29T05:24:58.466Z,12.8
2019-04-29T05:29:56.000Z,12.9
2019-04-29T05:34:55.050Z,12.5
2019-04-29T05:39:51.365Z,12.9
2019-04-29T05:44:48.950Z,13
2019-04-29T05:49:46.478Z,13
2019-04-29T05:54:43.732Z,12.9
2019-04-29T05:59:43.337Z,13.1
2019-04-29T06:04:38.478Z,13.1
2019-04-29T06:09:36.182Z,13.2
2019-04-29T06:14:33.586Z,13.3
2019-04-29T06:19:34.975Z,13.3
2019-04-29T06:24:28.712Z,13.2
2019-04-29T06:29:26.161Z,13.4
2019-04-29T06:34:23.585Z,13.6
2019-04-29T06:39:21.240Z,13.7
2019-04-29T06:44:18.820Z,13.7
2019-04-29T06:49:16.368Z,13.8
2019-04-29T06:54:13.922Z,13.9
2019-04-29T06:59:12.305Z,14
2019-04-29T07:04:09.376Z,14.1
2019-04-29T07:09:06.951Z,14.1
2019-04-29T07:14:04.186Z,14.3
2019-04-29T07:19:02.069Z,14.4
2019-04-29T07:23:59.845Z,14.6
2019-04-29T07:28:57.437Z,14.7
2019-04-29T07:33:57.859Z,14.8
2019-04-29T07:38:56.539Z,14
2019-04-29T07:43:50.295Z,15
2019-04-29T07:49:00.669Z,15.2
2019-04-29T07:53:45.858Z,15.3
2019-04-29T07:58:43.409Z,15.4
2019-04-29T08:03:40.928Z,15.5
2019-04-29T08:08:38.724Z,15.6
2019-04-29T08:13:36.330Z,15.7
2019-04-29T08:18:34.045Z,15.8
2019-04-29T08:23:32.545Z,15.9
2019-04-29T08:28:29.340Z,16
2019-04-29T08:33:27.015Z,16.1
2019-04-29T08:38:24.748Z,16.3
2019-04-29T08:43:22.528Z,16.3
2019-04-29T08:48:20.340Z,16.5
2019-04-29T08:53:17.969Z,16.5
2019-04-29T08:58:15.813Z,16.6
2019-04-29T09:03:13.022Z,16.7
2019-04-29T09:08:13.198Z,16.8
2019-04-29T09:13:08.101Z,16.8
2019-04-29T09:18:05.964Z,16.9
2019-04-29T09:23:03.752Z,16.9
2019-04-29T09:28:01.356Z,16.9
2019-04-29T09:32:58.674Z,17
2019-04-29T09:37:58.337Z,17.1
2019-04-29T09:42:56.827Z,17.3
2019-04-29T09:47:51.936Z,17.5
2019-04-29T09:52:49.459Z,17.6
2019-04-29T09:57:47.297Z,17.8
2019-04-29T10:02:44.710Z,18
2019-04-29T10:07:42.531Z,18.2
2019-04-29T10:12:40.345Z,18.1
2019-04-29T10:17:38.239Z,18.2
2019-04-29T10:22:36.059Z,18.2
2019-04-29T10:27:33.791Z,18.3
2019-04-29T10:32:31.132Z,18.5
2019-04-29T10:37:31.275Z,18.9
2019-04-29T10:42:27.183Z,18.4
2019-04-29T10:47:24.809Z,18.5
2019-04-29T10:52:22.633Z,18.6
2019-04-29T10:57:20.354Z,18.7
2019-04-29T11:02:17.624Z,18.7
2019-04-29T11:07:18.709Z,18.8
2019-04-29T11:12:13.552Z,18.8
2019-04-29T11:17:16.281Z,19
2019-04-29T11:22:08.956Z,19.1
2019-04-29T11:27:11.739Z,19.5
2019-04-29T11:32:04.441Z,19.9
2019-04-29T11:37:02.253Z,20
2019-04-29T11:42:01.574Z,20.1
2019-04-29T11:46:57.822Z,20
2019-04-29T11:52:08.948Z,20.1
2019-04-29T11:56:53.800Z,20.5
2019-04-29T12:01:53.407Z,20.9
2019-04-29T12:06:51.125Z,20.9
2019-04-29T12:11:47.248Z,20.9
2019-04-29T12:16:45.021Z,21.3
2019-04-29T12:21:43.259Z,21.2
2019-04-29T12:26:44.190Z,20.9
2019-04-29T12:31:38.809Z,20.7
2019-04-29T12:36:54.572Z,20.9
2019-04-29T12:41:42.033Z,20.6
2019-04-29T12:46:31.550Z,20.8
2019-04-29T12:51:29.261Z,20.7
2019-04-29T12:56:26.732Z,20.8
2019-04-29T13:01:24.387Z,20.7
2019-04-29T13:06:23.771Z,21.1
2019-04-29T13:11:20.977Z,20.8
2019-04-29T13:16:19.959Z,20.9
2019-04-29T13:21:15.375Z,20.7
2019-04-29T13:26:26.962Z,20.6
2019-04-29T13:31:10.899Z,20.4
2019-04-29T13:36:08.843Z,20.8
2019-04-29T13:41:13.168Z,21.4
2019-04-29T13:46:05.382Z,21.2
2019-04-29T13:51:02.727Z,20.7
2019-04-29T13:56:10.746Z,20.9
2019-04-29T14:00:59.786Z,21.2
2019-04-29T14:06:03.826Z,21.3
2019-04-29T14:10:53.150Z,21.3
2019-04-29T14:15:51.134Z,21.2
2019-04-29T14:20:51.752Z,21
2019-04-29T14:25:46.489Z,20.9
2019-04-29T14:30:47.560Z,20.9
2019-04-29T14:35:43.595Z,20.8
2019-04-29T14:40:42.654Z,20.6
2019-04-29T14:45:37.470Z,20.8
2019-04-29T14:50:35.157Z,20.7
2019-04-29T14:55:32.816Z,20.8
2019-04-29T15:00:31.036Z,20.8
2019-04-29T15:05:28.698Z,20.8
2019-04-29T15:10:30.364Z,20.9
2019-04-29T15:15:24.142Z,20.8
2019-04-29T15:20:25.002Z,21
2019-04-29T15:25:20.881Z,21.1
2019-04-29T15:30:17.356Z,21.1
2019-04-29T15:35:15.133Z,21
2019-04-29T15:40:12.871Z,21.2
2019-04-29T15:45:10.599Z,21.2
2019-04-29T15:50:18.079Z,21.3
2019-04-29T15:55:06.221Z,21.3
2019-04-29T16:00:20.459Z,21.8
2019-04-29T16:05:04.541Z,21.4
2019-04-29T16:09:59.517Z,21.5
2019-04-29T16:14:57.257Z,21.4
2019-04-29T16:19:55.026Z,21.4
2019-04-29T16:24:58.695Z,21.4
2019-04-29T16:29:51.555Z,21.3
2019-04-29T16:34:48.133Z,21.2
2019-04-29T16:39:45.713Z,21.1
2019-04-29T16:44:43.523Z,20.9
2019-04-29T16:49:41.181Z,20.8
2019-04-29T16:54:38.696Z,20.7
2019-04-29T16:59:36.572Z,20.5
2019-04-29T17:04:34.153Z,20.4
2019-04-29T17:09:31.530Z,20.4
2019-04-29T17:14:29.580Z,20.7
2019-04-29T17:19:27.208Z,20.1
2019-04-29T17:24:24.924Z,20
2019-04-29T17:29:38.271Z,19.9
2019-04-29T17:34:44.017Z,20.1
2019-04-29T17:39:17.920Z,19.7
2019-04-29T17:44:18.610Z,19.7
2019-04-29T17:49:13.529Z,19.6
2019-04-29T17:54:11.184Z,20
2019-04-29T17:59:08.932Z,19.5
2019-04-29T18:04:06.461Z,19.4
2019-04-29T18:09:04.928Z,19.3
2019-04-29T18:14:01.570Z,19.2
2019-04-29T18:19:01.693Z,19.1
2019-04-29T18:23:59.292Z,18.9
2019-04-29T18:28:56.757Z,18.9
2019-04-29T18:33:52.281Z,18.9
2019-04-29T18:38:50.095Z,18.6
2019-04-29T18:43:47.223Z,18.5
2019-04-29T18:48:45.660Z,18.5
2019-04-29T18:53:42.353Z,18.2
2019-04-29T18:58:42.023Z,18.4
2019-04-29T19:03:38.352Z,17.8
2019-04-29T19:08:36.082Z,18.2
2019-04-29T19:13:33.109Z,18.1
2019-04-29T19:18:30.985Z,18.4
2019-04-29T19:23:29.671Z,18.4
2019-04-29T19:28:30.612Z,18.3
2019-04-29T19:33:25.012Z,18.3
2019-04-29T19:38:21.146Z,18.3
2019-04-29T19:43:18.947Z,18.2
2019-04-29T19:48:16.081Z,18.1
2019-04-29T19:53:12.878Z,18.1
2019-04-29T19:58:12.556Z,18
2019-04-29T20:03:20.024Z,18
2019-04-29T20:08:07.555Z,17.9
2019-04-29T20:13:04.515Z,17.8
2019-04-29T20:18:02.898Z,17.8
2019-04-29T20:23:00.153Z,17.7
2019-04-29T20:28:05.677Z,17.6
2019-04-29T20:32:56.188Z,17.5
2019-04-29T20:37:56.544Z,17
2019-04-29T20:42:51.167Z,17.5
2019-04-29T20:47:48.292Z,17.3
2019-04-29T20:52:45.867Z,17.4
2019-04-29T20:57:43.190Z,17.4
2019-04-29T21:02:41.055Z,17.3
2019-04-29T21:07:38.482Z,17.2
2019-04-29T21:12:38.079Z,17.1
2019-04-29T21:17:35.337Z,16.8
2019-04-29T21:22:31.242Z,17
2019-04-29T21:27:28.964Z,17
2019-04-29T21:32:26.524Z,16.8
2019-04-29T21:37:25.806Z,16.9
2019-04-29T21:42:21.936Z,16.9
2019-04-29T21:47:19.623Z,12.2
2019-04-29T21:52:19.536Z,16.8
2019-04-29T21:57:16.872Z,16.8
2019-04-29T22:02:12.951Z,16.9
2019-04-29T22:07:10.077Z,14.9
2019-04-29T22:12:07.858Z,16.8
2019-04-29T22:17:05.508Z,16.8
2019-04-29T22:22:03.135Z,16.8
2019-04-29T22:27:03.751Z,16.7
2019-04-29T22:31:58.794Z,16.4
2019-04-29T22:36:58.198Z,16.7
2019-04-29T22:41:54.028Z,16.2
2019-04-29T22:46:50.552Z,16.4
2019-04-29T22:51:49.675Z,16.6
2019-04-29T23:01:47.172Z,16.5
2019-04-29T23:06:44.536Z,16.5
2019-04-29T23:11:39.246Z,16.5
2019-04-29T23:16:35.582Z,16.4
2019-04-29T23:21:35.809Z,16.4
2019-04-29T23:26:30.491Z,16.4
2019-04-29T23:31:28.311Z,16.3
2019-04-29T23:36:25.728Z,16.3
2019-04-29T23:41:25.979Z,16.3
2019-04-29T23:46:20.983Z,16.2
2019-04-29T23:51:18.636Z,16.2
2019-04-29T23:56:16.341Z,16.2
